Time;durP1;ratioP1;P1;durP2;ratioP2;P2;SDS_P1;SDS_P2;PMS_P1;PMS_P2;Temp;Humidity;BMP_temperature;BMP_pressure;BME280_temperature;BME280_humidity;BME280_pressure;Samples;Min_cycle;Max_cycle;Signal;HPM_P1;HPM_P2
2022/05/29 10:51:29;;;;;;;1.45;0.40;;;;;;;20.06;41.65;100646.00;5791043;24;21279;31
2022/05/29 10:54:09;;;;;;;0.40;0.30;;;;;;;20.07;41.19;100645.75;4762580;30;20071;-79
2022/05/29 10:56:48;;;;;;;0.93;0.30;;;;;;;20.03;40.58;100644.63;4757934;30;20131;-80
2022/05/29 10:59:40;;;;;;;0.65;0.30;;;;;;;20.12;40.76;100647.69;4761157;30;20032;-80
2022/05/29 11:05:11;;;;;;;1.55;0.30;;;;;;;19.98;39.83;100641.88;4758863;30;20042;-81
2022/05/29 11:08:13;;;;;;;1.00;0.30;;;;;;;20.06;40.62;100643.28;4774857;30;20039;-81
2022/05/29 11:11:16;;;;;;;1.83;0.40;;;;;;;20.11;41.11;100643.31;4767170;30;20345;-81
2022/05/29 11:13:54;;;;;;;0.30;0.30;;;;;;;20.09;40.17;100631.81;4769709;30;20043;-79
2022/05/29 11:16:43;;;;;;;0.82;0.40;;;;;;;20.05;39.35;100641.63;4758293;30;20060;-79
2022/05/29 11:19:45;;;;;;;1.05;0.40;;;;;;;20.05;39.46;100644.38;4754870;30;20435;-79
2022/05/29 11:22:36;;;;;;;0.70;0.47;;;;;;;20.02;40.89;100647.63;4757891;30;20071;-79
2022/05/29 11:25:34;;;;;;;1.10;0.32;;;;;;;19.91;40.08;100636.66;4757817;30;20040;-80
2022/05/29 11:28:24;;;;;;;0.88;0.50;;;;;;;19.64;40.43;100616.84;4763222;30;20045;-82
2022/05/29 11:31:13;;;;;;;1.52;0.60;;;;;;;19.84;40.84;100641.53;4760338;30;20046;-80
2022/05/29 11:33:58;;;;;;;0.60;0.43;;;;;;;19.83;41.00;100634.41;4757893;30;20107;-80
2022/05/29 11:36:42;;;;;;;0.75;0.50;;;;;;;19.83;40.32;100641.78;4755431;30;20032;-80
2022/05/29 11:39:38;;;;;;;2.05;1.33;;;;;;;19.74;39.51;100632.47;4753210;30;20062;-81
2022/05/29 11:42:19;;;;;;;3.90;1.30;;;;;;;19.92;41.09;100646.47;4757258;30;20051;-80
2022/05/29 11:44:54;;;;;;;3.08;0.55;;;;;;;19.90;41.46;100634.19;4747532;30;20116;-81
2022/05/29 11:53:46;;;;;;;0.43;0.30;;;;;;;20.03;42.17;100639.16;4738773;30;20510;-81
2022/05/29 11:56:22;;;;;;;0.73;0.40;;;;;;;19.99;42.72;100631.78;4736708;30;20071;-82
2022/05/29 11:58:53;;;;;;;0.57;0.40;;;;;;;20.14;42.12;100640.88;4744571;30;20040;-78
2022/05/29 12:01:24;;;;;;;2.60;0.30;;;;;;;19.92;41.79;100621.09;4761846;30;20031;-78
2022/05/29 12:04:01;;;;;;;0.80;0.40;;;;;;;19.89;41.89;100622.44;4771604;30;20062;-81
2022/05/29 12:06:31;;;;;;;1.40;0.40;;;;;;;19.99;41.95;100632.59;4758689;30;20063;-79
2022/05/29 12:09:18;;;;;;;1.15;0.30;;;;;;;20.07;42.00;100632.09;4754853;30;20122;-78
2022/05/29 12:12:00;;;;;;;1.08;0.50;;;;;;;20.23;43.08;100633.00;4756567;30;20043;-79
2022/05/29 12:14:34;;;;;;;1.80;0.45;;;;;;;20.11;43.28;100616.81;4755787;30;20294;-79
2022/05/29 12:17:14;;;;;;;0.57;0.45;;;;;;;20.01;43.09;100624.16;4744940;30;20033;-79
2022/05/29 12:19:44;;;;;;;1.23;0.45;;;;;;;19.85;43.18;100604.13;4736374;30;20040;-79
2022/05/29 12:22:13;;;;;;;0.55;0.35;;;;;;;19.95;43.45;100626.03;4750496;30;20023;-80
2022/05/29 12:24:43;;;;;;;0.80;0.30;;;;;;;19.87;44.26;100616.44;4770966;30;20051;-78
2022/05/29 12:27:21;;;;;;;0.68;0.47;;;;;;;20.09;44.76;100627.16;4765965;30;20471;-79
2022/05/29 12:29:54;;;;;;;1.48;0.40;;;;;;;20.01;42.39;100615.94;4748849;30;20472;-79
2022/05/29 12:32:37;;;;;;;0.90;0.40;;;;;;;20.06;43.37;100626.88;4755667;30;20066;-77
2022/05/29 12:35:03;;;;;;;2.70;0.30;;;;;;;20.05;43.94;100619.78;4749579;30;20047;-78
2022/05/29 12:37:40;;;;;;;5.97;0.50;;;;;;;20.11;43.96;100618.72;4750656;30;20370;-78
2022/05/29 12:40:24;;;;;;;0.60;0.40;;;;;;;20.10;43.06;100622.56;4748368;30;20467;-77
2022/05/29 12:43:15;;;;;;;2.70;0.40;;;;;;;20.14;43.12;100612.72;4751746;30;20496;-78
2022/05/29 12:45:49;;;;;;;0.60;0.50;;;;;;;20.24;43.73;100620.16;4754011;30;20043;-80
2022/05/29 12:48:33;;;;;;;0.60;0.40;;;;;;;20.25;44.25;100619.03;4746710;30;20070;-77
2022/05/29 12:51:22;;;;;;;2.42;0.60;;;;;;;20.23;44.74;100619.31;4745958;30;20036;-78
2022/05/29 12:54:31;;;;;;;0.50;0.40;;;;;;;20.20;44.77;100600.72;4751086;30;20056;-77
2022/05/29 12:57:02;;;;;;;2.28;0.73;;;;;;;20.27;44.94;100606.75;4756855;30;20056;-78
2022/05/29 12:59:52;;;;;;;6.13;0.63;;;;;;;20.25;44.92;100616.31;4747723;30;20510;-78
2022/05/29 13:02:39;;;;;;;1.13;0.40;;;;;;;20.10;44.86;100612.44;4746517;30;20036;-77
2022/05/29 13:05:47;;;;;;;1.30;0.52;;;;;;;20.15;46.14;100601.53;4744624;30;20041;-77
2022/05/29 13:08:58;;;;;;;2.80;0.50;;;;;;;20.38;45.23;100607.59;4747205;30;20042;-77
2022/05/29 13:11:31;;;;;;;0.75;0.60;;;;;;;20.54;46.13;100592.91;4750614;30;20041;-78
2022/05/29 13:14:04;;;;;;;0.68;0.40;;;;;;;20.52;44.32;100600.56;4748245;30;20039;-78
2022/05/29 13:16:39;;;;;;;2.38;0.60;;;;;;;20.40;45.14;100584.41;4748624;30;20123;-77
2022/05/29 13:19:14;;;;;;;0.77;0.50;;;;;;;20.21;45.26;100576.97;4744965;30;20107;-78
2022/05/29 13:22:04;;;;;;;1.40;0.50;;;;;;;20.44;44.34;100584.69;4746858;30;20067;-77
2022/05/29 13:24:37;;;;;;;0.73;0.40;;;;;;;20.64;44.55;100592.13;4751409;30;20040;-77
2022/05/29 13:27:09;;;;;;;0.77;0.40;;;;;;;20.78;44.46;100589.66;4754258;30;20024;-77
2022/05/29 13:29:49;;;;;;;0.80;0.50;;;;;;;20.88;44.50;100581.47;4752923;30;20063;-77
2022/05/29 13:32:20;;;;;;;0.85;0.50;;;;;;;20.73;45.47;100586.91;4751673;30;20380;-77
2022/05/29 13:34:48;;;;;;;1.08;0.50;;;;;;;20.62;45.75;100570.50;4753606;30;20031;-77
2022/05/29 13:37:31;;;;;;;0.88;0.52;;;;;;;20.57;45.98;100580.63;4752294;30;20448;-77
2022/05/29 13:40:04;;;;;;;1.63;0.57;;;;;;;20.56;46.51;100587.16;4751401;30;20097;-77
2022/05/29 13:42:43;;;;;;;3.13;0.60;;;;;;;20.49;46.42;100571.00;4755730;30;20036;-77
2022/05/29 13:45:24;;;;;;;2.70;0.50;;;;;;;20.62;45.70;100583.34;4755813;30;20064;-77
2022/05/29 13:48:04;;;;;;;0.88;0.40;;;;;;;20.67;44.61;100577.09;4752952;30;20040;-77
2022/05/29 13:50:42;;;;;;;0.70;0.50;;;;;;;20.67;44.55;100577.09;4750648;30;20042;-77
2022/05/29 13:53:30;;;;;;;0.70;0.60;;;;;;;20.79;44.63;100569.41;4756918;30;20143;-77
2022/05/29 13:56:06;;;;;;;1.40;0.63;;;;;;;20.91;45.46;100567.25;4753040;30;20089;-77
2022/05/29 14:04:45;;;;;;;1.10;0.55;;;;;;;21.01;47.28;100569.97;4753435;30;20486;-77
2022/05/29 14:07:12;;;;;;;2.22;0.70;;;;;;;20.94;48.90;100565.88;4751789;30;20113;-78
2022/05/29 14:10:00;;;;;;;1.40;0.50;;;;;;;20.88;48.93;100562.31;4755664;30;20456;-77
2022/05/29 14:12:51;;;;;;;0.98;0.60;;;;;;;20.86;49.45;100569.97;4757377;30;20059;-78
2022/05/29 14:15:43;;;;;;;3.35;0.90;;;;;;;20.92;50.55;100560.69;4753292;30;20043;-77
2022/05/29 14:18:22;;;;;;;0.85;0.52;;;;;;;20.88;49.41;100562.31;4753320;30;20066;-77
2022/05/29 14:21:17;;;;;;;1.30;0.50;;;;;;;20.86;48.96;100561.75;4753190;30;20035;-77
2022/05/29 14:23:48;;;;;;;0.70;0.50;;;;;;;20.80;48.84;100562.88;4756833;30;20048;-77
2022/05/29 14:26:52;;;;;;;0.70;0.50;;;;;;;20.76;48.76;100562.59;4757721;30;20367;-78
2022/05/29 14:29:34;;;;;;;1.95;0.60;;;;;;;20.99;49.01;100563.97;4754329;30;20122;-77
2022/05/29 14:32:18;;;;;;;2.67;0.60;;;;;;;21.08;48.61;100567.78;4762142;30;20434;-77
2022/05/29 14:35:17;;;;;;;1.63;0.60;;;;;;;21.15;47.43;100572.16;4756519;30;20147;-77
2022/05/29 14:37:50;;;;;;;1.00;0.50;;;;;;;21.00;47.02;100546.47;4758788;30;20032;-77
2022/05/29 14:40:40;;;;;;;2.25;0.50;;;;;;;20.84;47.48;100553.03;4756910;30;20028;-77
2022/05/29 14:43:12;;;;;;;0.75;0.50;;;;;;;20.65;47.44;100552.75;4761254;30;20032;-77
2022/05/29 14:45:41;;;;;;;0.88;0.40;;;;;;;20.45;47.32;100572.63;4758308;30;20032;-77
2022/05/29 14:48:19;;;;;;;2.33;0.57;;;;;;;20.15;47.20;100566.00;4773652;30;20082;-77
2022/05/29 14:50:54;;;;;;;0.55;0.40;;;;;;;20.15;46.93;100567.91;4758561;30;20070;-77
2022/05/29 14:53:25;;;;;;;1.27;0.45;;;;;;;20.34;46.76;100569.06;4763457;30;20562;-77
2022/05/29 14:55:58;;;;;;;2.45;0.43;;;;;;;20.71;45.01;100570.78;4760118;30;20032;-77
2022/05/29 14:58:36;;;;;;;2.65;0.70;;;;;;;21.03;44.44;100565.06;4761695;30;20439;-76
2022/05/29 15:01:06;;;;;;;1.88;0.80;;;;;;;20.76;44.61;100567.22;4754870;30;20036;-76
2022/05/29 15:03:37;;;;;;;0.95;0.55;;;;;;;20.63;44.94;100576.81;4765072;30;20046;-76
2022/05/29 15:06:04;;;;;;;1.38;0.60;;;;;;;20.36;45.23;100568.78;4765232;30;20048;-76
2022/05/29 15:11:48;;;;;;;1.85;0.57;;;;;;;20.78;45.42;100573.25;4753101;30;20044;-77
2022/05/29 15:14:22;;;;;;;2.13;0.70;;;;;;;20.66;44.47;100576.25;4740152;30;20048;-78
2022/05/29 15:16:52;;;;;;;0.77;0.50;;;;;;;20.36;45.39;100555.97;4759294;30;20031;-76
2022/05/29 15:25:12;;;;;;;0.77;0.40;;;;;;;19.80;46.04;100563.13;4746553;30;20047;-79
2022/05/29 15:27:46;;;;;;;2.90;0.60;;;;;;;19.65;46.31;100567.44;4759388;30;20028;-77
2022/05/29 15:30:17;;;;;;;2.78;0.55;;;;;;;19.38;46.54;100553.09;4755292;30;20032;-76
2022/05/29 15:32:47;;;;;;;1.95;0.50;;;;;;;19.37;47.11;100549.53;4757079;30;20059;-77
2022/05/29 15:36:07;;;;;;;0.98;0.65;;;;;;;19.39;47.12;100562.91;4741575;30;20032;-77
2022/05/29 15:38:43;;;;;;;1.35;0.50;;;;;;;19.44;47.36;100561.03;4751943;30;20221;-77
2022/05/29 15:41:24;;;;;;;2.08;0.52;;;;;;;19.47;46.65;100554.22;4768355;30;20047;-77
2022/05/29 15:43:49;;;;;;;3.25;1.00;;;;;;;19.51;47.30;100549.06;4753899;30;20032;-77
2022/05/29 15:46:24;;;;;;;5.68;1.02;;;;;;;19.52;46.79;100548.78;4755776;30;20107;-77
2022/05/29 15:48:52;;;;;;;;;;;;;;;19.45;47.24;100548.22;4753605;30;20036;-78
2022/05/29 15:51:28;;;;;;;2.97;1.40;;;;;;;19.44;47.71;100554.75;4753942;30;19922;-78
2022/05/29 15:54:30;;;;;;;3.30;0.60;;;;;;;19.41;47.50;100547.09;4754681;30;20123;-77
2022/05/29 15:57:09;;;;;;;2.38;1.23;;;;;;;19.39;47.58;100546.53;4754056;30;20028;-77
2022/05/29 16:00:08;;;;;;;1.65;0.60;;;;;;;19.41;47.38;100545.19;4751496;30;20102;-78
2022/05/29 16:02:56;;;;;;;1.08;0.60;;;;;;;19.28;46.91;100553.84;4745870;30;20460;-77
2022/05/29 16:05:31;;;;;;;1.75;0.52;;;;;;;19.23;47.04;100549.16;4752716;30;20044;-78
2022/05/29 16:08:17;;;;;;;2.63;0.60;;;;;;;18.95;46.48;100528.53;4753283;30;20135;-78
2022/05/29 16:10:43;;;;;;;2.40;0.55;;;;;;;19.14;46.26;100569.84;4768461;30;20666;-77
2022/05/29 16:13:09;;;;;;;2.80;0.60;;;;;;;18.90;47.33;100563.09;4755214;30;20036;-78
2022/05/29 16:15:41;;;;;;;3.63;1.02;;;;;;;18.51;58.34;100574.19;4754651;30;20148;-77
2022/05/29 16:18:38;;;;;;;5.18;1.30;;;;;;;17.94;64.03;100540.03;4755353;30;20193;-79
2022/05/29 16:21:08;;;;;;;6.65;1.30;;;;;;;17.78;70.11;100570.88;4746499;30;20579;-78
2022/05/29 16:23:52;;;;;;;5.65;1.27;;;;;;;17.65;72.57;100580.22;4750203;30;20047;-78
2022/05/29 16:26:23;;;;;;;3.13;0.90;;;;;;;17.58;74.10;100574.13;4744476;30;20050;-77
2022/05/29 16:29:09;;;;;;;4.80;1.20;;;;;;;17.57;73.70;100575.19;4765644;29;20094;-78
2022/05/29 16:31:58;;;;;;;5.53;1.65;;;;;;;17.57;73.62;100567.84;4765716;30;20036;-77
2022/05/29 16:34:36;;;;;;;5.65;1.45;;;;;;;17.49;74.46;100565.56;4741751;30;20051;-77
2022/05/29 16:48:42;;;;;;;8.15;2.08;;;;;;;17.18;78.51;100564.28;4758019;30;20043;-79
2022/05/29 16:51:12;;;;;;;9.90;2.00;;;;;;;17.14;78.77;100558.53;4756054;30;20032;-78
2022/05/29 16:53:53;;;;;;;8.30;1.98;;;;;;;17.12;79.20;100568.84;4766044;30;20043;-78
2022/05/29 16:56:30;;;;;;;9.15;2.20;;;;;;;17.06;79.83;100561.69;4761702;30;20032;-78
2022/05/29 16:59:34;;;;;;;8.30;2.10;;;;;;;17.01;78.66;100561.59;4750943;30;20035;-77
2022/05/29 17:02:07;;;;;;;6.60;1.90;;;;;;;16.89;78.64;100553.53;4757783;30;20036;-78
2022/05/29 17:04:37;;;;;;;10.20;2.53;;;;;;;16.93;79.56;100581.03;4759447;30;20089;-78
2022/05/29 17:07:05;;;;;;;9.63;2.58;;;;;;;16.85;80.14;100576.84;4761487;30;20467;-78
2022/05/29 17:12:09;;;;;;;12.75;3.00;;;;;;;16.66;82.05;100568.06;4754796;30;20028;-77
2022/05/29 17:14:38;;;;;;;10.27;3.03;;;;;;;16.57;83.14;100565.97;4751188;30;20044;-79
2022/05/29 17:17:04;;;;;;;12.80;3.10;;;;;;;16.56;84.79;100572.50;4736832;30;20040;-78
2022/05/29 17:19:30;;;;;;;10.65;2.75;;;;;;;16.54;85.29;100561.03;4764528;30;20060;-80
2022/05/29 17:22:17;;;;;;;12.20;3.10;;;;;;;16.53;85.96;100562.13;4756740;30;20036;-78
2022/05/29 17:25:03;;;;;;;15.15;3.25;;;;;;;16.50;86.73;100566.13;4763366;30;20035;-78
2022/05/29 17:27:40;;;;;;;14.57;3.40;;;;;;;16.43;88.05;100557.31;4762427;30;20024;-79
2022/05/29 17:30:16;;;;;;;14.93;3.70;;;;;;;16.40;88.96;100555.09;4758262;30;20521;-79
2022/05/29 17:33:19;;;;;;;14.85;3.22;;;;;;;16.25;89.80;100541.22;4755227;30;20068;-79
2022/05/29 17:35:48;;;;;;;12.02;3.35;;;;;;;16.10;90.96;100530.91;4753376;30;20492;-78
2022/05/29 17:38:28;;;;;;;14.85;2.97;;;;;;;16.19;91.40;100554.72;4738437;30;20047;-79
2022/05/29 17:40:55;;;;;;;13.75;3.05;;;;;;;15.93;92.97;100518.13;4739936;30;20087;-77
2022/05/29 17:43:23;;;;;;;12.13;3.20;;;;;;;16.13;93.93;100550.25;4753739;30;20040;-80
2022/05/29 17:46:07;;;;;;;12.52;3.63;;;;;;;16.09;95.06;100545.53;4738052;30;20139;-77
2022/05/29 17:48:35;;;;;;;12.63;3.28;;;;;;;16.08;95.42;100541.19;4753764;30;20032;-78
2022/05/29 17:51:39;;;;;;;12.88;3.20;;;;;;;16.01;96.12;100532.34;4738057;30;20069;-78
2022/05/29 17:54:09;;;;;;;13.30;3.47;;;;;;;15.95;96.50;100532.25;4747348;30;20060;-79
2022/05/29 17:56:35;;;;;;;16.23;3.53;;;;;;;15.99;97.42;100548.88;4739638;30;20051;-79
2022/05/29 17:59:02;;;;;;;15.73;3.70;;;;;;;15.94;98.54;100546.88;4751259;30;20039;-79
2022/05/29 18:01:29;;;;;;;17.38;4.30;;;;;;;15.91;99.56;100538.41;4725411;30;20126;-80
2022/05/29 18:03:55;;;;;;;14.68;3.78;;;;;;;15.89;100.00;100546.81;4752187;30;20387;-82
2022/05/29 18:06:21;;;;;;;11.73;3.65;;;;;;;15.76;100.00;100527.22;4722890;30;20043;-81
2022/05/29 18:08:47;;;;;;;12.00;3.67;;;;;;;15.75;100.00;100537.25;4742090;30;20048;-80
2022/05/29 18:11:17;;;;;;;13.95;3.78;;;;;;;15.82;100.00;100542.56;4722654;30;20113;-81
2022/05/29 18:13:42;;;;;;;14.82;4.00;;;;;;;15.86;100.00;100549.13;4750348;30;20122;-79
2022/05/29 18:16:08;;;;;;;18.83;3.78;;;;;;;15.78;100.00;100547.63;4754854;30;20048;-82
2022/05/29 18:18:37;;;;;;;13.75;3.60;;;;;;;15.78;100.00;100549.53;4738805;30;20139;-78
2022/05/29 18:21:04;;;;;;;15.00;3.58;;;;;;;15.71;100.00;100536.09;4768126;30;20040;-79
2022/05/29 18:23:30;;;;;;;15.45;3.55;;;;;;;15.81;100.00;100559.91;4753859;30;20047;-78
2022/05/29 18:25:58;;;;;;;15.57;3.70;;;;;;;15.77;100.00;100556.84;4744592;30;20037;-79
2022/05/29 18:28:23;;;;;;;17.63;4.20;;;;;;;15.60;100.00;100539.66;4746261;30;20039;-79
2022/05/29 18:30:51;;;;;;;19.75;3.80;;;;;;;15.72;100.00;100554.00;4734917;30;20039;-79
2022/05/29 18:33:17;;;;;;;18.67;3.60;;;;;;;15.69;100.00;100559.91;4737974;30;20048;-78
2022/05/29 18:35:43;;;;;;;19.20;4.10;;;;;;;15.69;100.00;100558.06;4749489;30;20043;-79
2022/05/29 18:38:09;;;;;;;22.25;4.65;;;;;;;15.55;100.00;100525.97;4747710;30;20043;-79
2022/05/29 18:40:34;;;;;;;17.90;4.07;;;;;;;15.63;100.00;100544.56;4723905;30;20039;-79
2022/05/29 18:42:59;;;;;;;18.50;4.10;;;;;;;15.60;100.00;100547.78;4737476;30;20051;-80
2022/05/29 18:45:25;;;;;;;17.65;4.68;;;;;;;15.63;100.00;100550.00;4740733;30;20124;-79
2022/05/29 18:47:51;;;;;;;16.55;3.90;;;;;;;15.50;100.00;100537.53;4734169;30;20147;-78
2022/05/29 18:50:16;;;;;;;21.35;4.72;;;;;;;15.64;100.00;100548.94;4751084;30;20036;-79
2022/05/29 18:52:44;;;;;;;16.25;4.22;;;;;;;15.62;100.00;100521.22;4757428;30;20483;-80
2022/05/29 18:55:10;;;;;;;20.40;4.25;;;;;;;15.73;100.00;100506.84;4764165;30;20048;-80
2022/05/29 18:57:39;;;;;;;17.25;4.30;;;;;;;16.08;100.00;100546.59;4769712;30;20044;-80
2022/05/29 19:00:10;;;;;;;19.45;4.40;;;;;;;16.15;100.00;100529.09;4768219;30;20059;-81
2022/05/29 19:02:36;;;;;;;16.27;3.60;;;;;;;16.35;100.00;100541.41;4750531;30;20514;-79
2022/05/29 19:05:03;;;;;;;17.40;4.00;;;;;;;16.38;100.00;100521.91;4741518;30;20041;-79
2022/05/29 19:07:28;;;;;;;14.25;3.28;;;;;;;16.61;100.00;100539.97;4758527;30;20041;-80
2022/05/29 19:09:55;;;;;;;13.30;3.92;;;;;;;16.53;100.00;100533.06;4742334;30;20344;-80
2022/05/29 19:12:22;;;;;;;13.93;3.22;;;;;;;16.53;100.00;100537.66;4759188;30;20046;-78
2022/05/29 19:14:48;;;;;;;13.23;3.10;;;;;;;16.41;100.00;100546.69;4743757;30;20059;-79
2022/05/29 19:19:57;;;;;;;13.43;2.95;;;;;;;16.20;100.00;100540.06;4758947;30;20122;-79
2022/05/29 19:22:24;;;;;;;11.45;2.90;;;;;;;16.25;100.00;100552.06;4742410;30;20040;-80
2022/05/29 19:24:53;;;;;;;16.08;3.10;;;;;;;15.92;100.00;100521.03;4764365;30;20035;-80
2022/05/29 19:27:18;;;;;;;13.82;3.00;;;;;;;16.02;100.00;100561.13;4743274;30;20032;-78
2022/05/29 19:29:44;;;;;;;12.10;2.78;;;;;;;15.88;100.00;100561.41;4748919;30;20040;-79
2022/05/29 19:32:10;;;;;;;13.45;2.70;;;;;;;15.77;100.00;100550.59;4745752;30;20036;-79
2022/05/29 19:34:36;;;;;;;12.25;2.60;;;;;;;15.76;100.00;100566.06;4741288;30;20070;-80
2022/05/29 19:37:01;;;;;;;7.93;2.38;;;;;;;15.66;100.00;100563.06;4755567;30;20037;-79
2022/05/29 19:39:27;;;;;;;11.13;2.78;;;;;;;15.60;100.00;100566.75;4765854;30;20646;-80
2022/05/29 19:41:53;;;;;;;8.38;2.95;;;;;;;15.45;100.00;100554.50;4756736;30;20047;-79
2022/05/29 19:44:18;;;;;;;10.10;2.50;;;;;;;15.43;100.00;100561.22;4774526;30;20109;-80
2022/05/29 19:46:44;;;;;;;8.18;2.00;;;;;;;15.31;100.00;100552.28;4771887;30;20051;-79
2022/05/29 19:49:10;;;;;;;9.30;1.83;;;;;;;15.17;100.00;100549.00;4760083;30;20118;-80
2022/05/29 19:51:40;;;;;;;7.50;2.13;;;;;;;15.18;100.00;100570.44;4755433;30;20127;-81
2022/05/29 19:54:05;;;;;;;7.00;1.63;;;;;;;15.11;100.00;100569.72;4755992;30;20190;-79
2022/05/29 19:56:31;;;;;;;7.05;1.83;;;;;;;15.06;100.00;100576.91;4753095;30;20495;-80
2022/05/29 19:58:56;;;;;;;7.30;1.40;;;;;;;15.01;100.00;100574.91;4754359;30;20063;-79
2022/05/29 20:01:27;;;;;;;8.35;1.42;;;;;;;14.73;100.00;100552.00;4743322;30;20037;-80
2022/05/29 20:03:55;;;;;;;8.55;1.55;;;;;;;14.83;100.00;100578.50;4756295;30;20383;-80
2022/05/29 20:06:23;;;;;;;5.45;1.33;;;;;;;14.77;100.00;100576.75;4755285;30;20028;-80
2022/05/29 20:08:51;;;;;;;5.05;1.42;;;;;;;14.71;100.00;100585.81;4749194;30;20029;-80
2022/05/29 20:11:25;;;;;;;5.75;1.30;;;;;;;14.61;100.00;100572.81;4753244;30;20044;-79
2022/05/29 20:13:52;;;;;;;6.47;1.33;;;;;;;14.58;100.00;100576.00;4754553;30;20027;-78
2022/05/29 20:16:27;;;;;;;4.03;1.30;;;;;;;14.33;100.00;100538.19;4758397;30;20040;-78
2022/05/29 20:18:55;;;;;;;8.00;1.20;;;;;;;14.43;100.00;100565.53;4765828;30;20036;-78
2022/05/29 20:21:23;;;;;;;4.63;1.45;;;;;;;14.50;100.00;100587.97;4769249;30;20038;-80
2022/05/29 20:23:50;;;;;;;4.80;1.38;;;;;;;14.34;100.00;100567.75;4772159;30;20043;-81
2022/05/29 20:26:17;;;;;;;3.92;1.30;;;;;;;14.45;100.00;100584.28;4768646;30;20114;-80
2022/05/29 20:28:42;;;;;;;4.68;1.23;;;;;;;14.43;100.00;100587.19;4752521;30;20759;-80
2022/05/29 20:31:08;;;;;;;3.70;1.08;;;;;;;14.26;100.00;100564.53;4750390;30;20055;-80
2022/05/29 20:33:33;;;;;;;3.58;1.00;;;;;;;14.34;100.00;100588.59;4742154;30;20048;-78
2022/05/29 20:36:09;;;;;;;4.78;1.40;;;;;;;14.29;100.00;100594.66;4725299;30;20458;-79
2022/05/29 20:38:38;;;;;;;5.32;1.00;;;;;;;14.26;100.00;100594.31;4756078;30;20104;-79
2022/05/29 20:41:11;;;;;;;5.07;1.38;;;;;;;14.18;100.00;100595.47;4757141;30;20512;-78
2022/05/29 20:43:37;;;;;;;4.40;1.55;;;;;;;14.20;100.00;100600.63;4755675;30;20039;-78
2022/05/29 20:48:50;;;;;;;7.72;1.48;;;;;;;14.03;100.00;100606.66;4777271;30;20080;-80
2022/05/29 20:51:16;;;;;;;4.70;1.40;;;;;;;14.02;100.00;100615.84;4757214;30;20104;-80
2022/05/29 20:53:41;;;;;;;5.78;1.10;;;;;;;14.07;100.00;100607.88;4746032;30;20074;-80
2022/05/29 20:56:06;;;;;;;3.80;1.00;;;;;;;14.04;100.00;100605.63;4759111;30;20044;-87
2022/05/29 20:58:35;;;;;;;8.05;1.45;;;;;;;14.08;100.00;100611.41;4749613;30;20452;-90
2022/05/29 21:01:12;;;;;;;6.93;1.40;;;;;;;14.04;100.00;100597.50;4755787;30;20029;-87
2022/05/29 21:03:38;;;;;;;5.35;1.30;;;;;;;14.08;100.00;100601.41;4751742;30;20044;-87
2022/05/29 21:06:05;;;;;;;5.85;1.30;;;;;;;14.17;100.00;100612.75;4747353;30;20033;-87
2022/05/29 21:08:31;;;;;;;9.48;1.67;;;;;;;14.03;100.00;100585.00;4757301;30;20032;-86
2022/05/29 21:10:56;;;;;;;7.53;1.75;;;;;;;14.14;100.00;100596.97;4763203;30;20024;-87
2022/05/29 21:13:22;;;;;;;7.63;1.70;;;;;;;14.17;100.00;100598.38;4757745;30;20033;-86
2022/05/29 21:15:48;;;;;;;6.97;1.48;;;;;;;14.28;100.00;100619.28;4754099;30;20058;-87
2022/05/29 21:18:13;;;;;;;7.88;1.48;;;;;;;14.20;100.00;100606.03;4762813;30;20044;-84
2022/05/29 21:20:39;;;;;;;6.65;1.52;;;;;;;14.21;100.00;100623.94;4768530;30;20091;-81
2022/05/29 21:23:05;;;;;;;6.18;1.40;;;;;;;14.17;100.00;100625.44;4775675;30;20048;-82
2022/05/29 21:25:31;;;;;;;6.78;1.38;;;;;;;14.10;100.00;100618.25;4776274;30;20044;-83
2022/05/29 21:27:58;;;;;;;5.25;1.40;;;;;;;14.12;100.00;100625.31;4775557;30;20047;-82
2022/05/29 21:30:24;;;;;;;6.65;1.40;;;;;;;14.00;100.00;100620.63;4765162;30;20063;-81
2022/05/29 21:32:51;;;;;;;5.97;1.40;;;;;;;14.04;100.00;100634.56;4760222;30;20048;-82
2022/05/29 21:35:17;;;;;;;7.95;1.63;;;;;;;13.84;100.00;100616.69;4758341;30;20057;-82
2022/05/29 21:37:52;;;;;;;6.70;1.45;;;;;;;13.65;100.00;100595.25;4755561;30;20040;-81
2022/05/29 21:40:18;;;;;;;5.32;1.33;;;;;;;13.84;100.00;100632.06;4755153;30;20043;-83
2022/05/29 21:42:44;;;;;;;3.92;1.13;;;;;;;13.79;100.00;100640.03;4755831;30;20042;-82
2022/05/29 21:45:11;;;;;;;4.68;1.35;;;;;;;13.77;100.00;100653.75;4755385;30;20096;-82
2022/05/29 21:47:37;;;;;;;5.35;1.20;;;;;;;13.72;100.00;100647.38;4740254;30;20047;-82
2022/05/29 21:50:13;;;;;;;3.63;1.13;;;;;;;13.65;100.00;100655.56;4756095;30;20040;-82
2022/05/29 21:52:38;;;;;;;6.18;1.13;;;;;;;13.53;100.00;100643.81;4754087;30;20048;-82
2022/05/29 21:55:06;;;;;;;4.05;1.20;;;;;;;13.56;100.00;100655.00;4753974;30;20048;-83
2022/05/29 21:57:31;;;;;;;2.83;0.98;;;;;;;13.46;100.00;100652.00;4744266;30;20032;-82
2022/05/29 22:00:06;;;;;;;4.85;1.00;;;;;;;13.37;100.00;100640.63;4743268;30;20055;-82
2022/05/29 22:02:32;;;;;;;4.50;1.00;;;;;;;13.37;100.00;100650.63;4758080;30;20035;-81
2022/05/29 22:04:57;;;;;;;2.28;0.82;;;;;;;13.43;100.00;100659.72;4757583;30;20048;-82
2022/05/29 22:07:22;;;;;;;4.25;1.30;;;;;;;13.36;100.00;100657.06;4761298;30;20474;-82
2022/05/29 22:09:48;;;;;;;6.05;1.20;;;;;;;13.38;100.00;100661.22;4737008;30;20039;-82
2022/05/29 22:12:13;;;;;;;3.80;1.00;;;;;;;13.38;100.00;100663.09;4726325;30;20374;-83
2022/05/29 22:14:38;;;;;;;9.63;1.58;;;;;;;13.22;100.00;100636.59;4755807;30;20040;-82
2022/05/29 22:17:04;;;;;;;5.50;1.40;;;;;;;13.35;100.00;100658.13;4740417;30;20076;-83
2022/05/29 22:19:30;;;;;;;2.75;0.90;;;;;;;13.17;100.00;100639.94;4754097;30;20054;-83
2022/05/29 22:21:55;;;;;;;6.18;1.00;;;;;;;13.27;100.00;100656.50;4752077;30;20047;-82
2022/05/29 22:24:21;;;;;;;6.78;1.35;;;;;;;13.05;100.00;100625.50;4751805;30;20360;-82
2022/05/29 22:26:47;;;;;;;6.07;0.90;;;;;;;13.12;100.00;100650.59;4764349;30;20044;-81
2022/05/29 22:29:12;;;;;;;3.08;0.90;;;;;;;13.06;100.00;100637.97;4754047;30;20123;-81
2022/05/29 22:31:53;;;;;;;4.22;1.10;;;;;;;13.24;100.00;100667.75;4757280;30;20102;-83
2022/05/29 22:34:32;;;;;;;6.20;1.00;;;;;;;13.26;100.00;100675.66;4740196;30;20029;-83
2022/05/29 22:37:24;;;;;;;5.05;1.45;;;;;;;13.23;100.00;100676.06;4743386;30;20036;-83
2022/05/29 22:39:52;;;;;;;7.35;1.33;;;;;;;13.13;100.00;100673.84;4776624;30;20044;-82
2022/05/29 22:42:18;;;;;;;7.72;1.50;;;;;;;13.07;100.00;100678.25;4775424;30;20486;-82
2022/05/29 22:44:45;;;;;;;5.22;1.40;;;;;;;13.09;100.00;100688.84;4776419;30;20043;-83
2022/05/29 22:47:23;;;;;;;11.57;2.45;;;;;;;13.07;100.00;100688.22;4761580;30;20055;-83
2022/05/29 22:50:27;;;;;;;7.15;1.48;;;;;;;13.01;100.00;100692.63;4758901;30;20099;-82
2022/05/29 22:53:02;;;;;;;10.07;1.73;;;;;;;12.98;100.00;100694.94;4755845;30;20052;-83
2022/05/29 22:55:28;;;;;;;10.57;1.60;;;;;;;12.84;100.00;100680.69;4757588;30;20063;-81
2022/05/29 22:57:53;;;;;;;11.23;2.10;;;;;;;12.90;100.00;100704.13;4749594;30;20060;-82
2022/05/29 23:00:26;;;;;;;8.65;1.83;;;;;;;12.76;100.00;100687.19;4764933;30;20109;-82
2022/05/29 23:02:59;;;;;;;13.20;2.28;;;;;;;12.72;100.00;100694.06;4761323;30;20051;-83
2022/05/29 23:05:25;;;;;;;8.75;1.70;;;;;;;12.69;100.00;100697.19;4769590;30;20048;-82
2022/05/29 23:07:50;;;;;;;9.90;1.65;;;;;;;12.61;100.00;100690.16;4774704;30;20032;-82
2022/05/29 23:10:16;;;;;;;12.98;1.90;;;;;;;12.37;100.00;100666.59;4774733;30;20043;-83
2022/05/29 23:12:41;;;;;;;9.80;2.20;;;;;;;12.51;100.00;100702.47;4775199;30;20063;-81
2022/05/29 23:15:07;;;;;;;10.20;1.65;;;;;;;12.46;100.00;100700.41;4745998;30;20119;-83
2022/05/29 23:17:32;;;;;;;8.38;1.58;;;;;;;12.39;100.00;100700.44;4754528;30;20043;-82
2022/05/29 23:19:58;;;;;;;8.50;1.98;;;;;;;12.30;100.00;100703.59;4754133;30;20112;-83
2022/05/29 23:22:31;;;;;;;9.90;1.60;;;;;;;12.14;100.00;100694.91;4753609;30;20075;-83
2022/05/29 23:25:09;;;;;;;11.75;2.25;;;;;;;12.12;100.00;100709.63;4757025;30;20028;-82